Terminal Aerodrome Forecast
Issued by NWS Paducah, KY

Home | Current Version | Previous Version | Text Only | Print | Product List | Glossary On
Versions: 1 2 3 4 5 6 7 8 9 10 11 12 13 14 15 16
000
FTUS43 KPAH 292011 AAB
TAFEVV
TAF AMD
KEVV 292011Z 2920/3018 34007KT P6SM VCTS BKN030 BKN070CB
      TEMPO 2921/2922 35008G22KT 1SM +TSRA BR BKN025CB OVC050
     FM292230 36010KT P6SM SCT025
     FM300200 35004KT P6SM SCT100=

USA.gov is the U.S. government's official web portal to all federal, state and local government web resources and services.